createdAt,value
2017-08-18T00:02:15.425Z,19.20
2017-08-18T00:04:43.750Z,19.30
2017-08-18T00:07:11.350Z,19.20
2017-08-18T00:09:38.951Z,19.20
2017-08-18T00:12:06.565Z,19.30
2017-08-18T00:14:34.138Z,19.20
2017-08-18T00:17:01.779Z,19.10
2017-08-18T00:19:29.361Z,19.10
2017-08-18T00:21:56.957Z,19.10
2017-08-18T00:24:24.515Z,19.10
2017-08-18T00:26:52.042Z,19.10
2017-08-18T00:29:19.636Z,19.00
2017-08-18T00:31:48.071Z,18.90
2017-08-18T00:34:15.669Z,18.90
2017-08-18T00:36:43.198Z,19.00
2017-08-18T00:39:11.553Z,18.80
2017-08-18T00:41:39.873Z,18.80
2017-08-18T00:44:07.496Z,18.80
2017-08-18T00:46:35.032Z,18.60
2017-08-18T00:49:02.753Z,18.60
2017-08-18T00:51:31.093Z,18.60
2017-08-18T00:53:58.684Z,18.60
2017-08-18T00:56:26.302Z,18.50
2017-08-18T00:58:54.625Z,18.30
2017-08-18T01:01:22.194Z,18.30
2017-08-18T01:03:49.772Z,18.40
2017-08-18T01:06:18.136Z,18.40
2017-08-18T01:08:46.670Z,18.40
2017-08-18T01:11:14.245Z,18.40
2017-08-18T01:13:41.772Z,18.30
2017-08-18T01:16:09.447Z,18.20
2017-08-18T01:18:37.842Z,18.30
2017-08-18T01:21:05.516Z,18.30
2017-08-18T01:23:33.119Z,18.30
2017-08-18T01:26:00.820Z,18.40
2017-08-18T01:28:28.454Z,18.30
2017-08-18T01:30:56.018Z,18.40
2017-08-18T01:33:24.336Z,18.30
2017-08-18T01:35:51.892Z,18.30
2017-08-18T01:38:19.440Z,18.30
2017-08-18T01:40:46.975Z,18.30
2017-08-18T01:43:14.536Z,18.30
2017-08-18T01:45:42.063Z,18.30
2017-08-18T01:48:09.636Z,18.40
2017-08-18T01:50:37.156Z,18.30
2017-08-18T01:53:04.753Z,18.30
2017-08-18T01:55:32.291Z,18.30
2017-08-18T01:57:59.864Z,18.30
2017-08-18T02:00:27.446Z,18.20
2017-08-18T02:02:55.022Z,18.20
2017-08-18T02:05:22.548Z,18.20
2017-08-18T02:07:50.200Z,18.10
2017-08-18T02:10:17.814Z,18.10
2017-08-18T02:12:45.481Z,18.10
2017-08-18T02:15:13.150Z,18.10
2017-08-18T02:17:40.739Z,18.10
2017-08-18T02:20:08.388Z,18.10
2017-08-18T02:22:35.998Z,18.10
2017-08-18T02:25:03.627Z,18.10
2017-08-18T02:27:31.254Z,18.10
2017-08-18T02:29:58.819Z,18.10
2017-08-18T02:32:26.367Z,18.10
2017-08-18T02:34:53.937Z,18.00
2017-08-18T02:37:22.323Z,18.10
2017-08-18T02:39:49.988Z,18.10
2017-08-18T02:42:17.602Z,18.10
2017-08-18T02:44:45.234Z,18.10
2017-08-18T02:47:12.804Z,18.00
2017-08-18T02:49:40.379Z,18.10
2017-08-18T02:52:07.977Z,18.00
2017-08-18T02:54:35.652Z,18.10
2017-08-18T02:57:03.358Z,18.10
2017-08-18T02:59:30.958Z,18.10
2017-08-18T03:01:58.624Z,18.10
2017-08-18T03:04:26.554Z,18.10
2017-08-18T03:06:54.883Z,18.20
2017-08-18T03:09:22.460Z,18.20
2017-08-18T03:11:50.080Z,18.20
2017-08-18T03:14:18.377Z,17.90
2017-08-18T03:16:46.043Z,17.90
2017-08-18T03:19:13.580Z,17.90
2017-08-18T03:21:41.157Z,17.90
2017-08-18T03:24:08.702Z,17.80
2017-08-18T03:26:36.275Z,17.90
2017-08-18T03:29:04.641Z,17.90
2017-08-18T03:31:32.975Z,18.00
2017-08-18T03:34:00.532Z,18.00
2017-08-18T03:36:29.026Z,18.10
2017-08-18T03:38:56.637Z,18.10
2017-08-18T03:41:24.312Z,18.10
2017-08-18T03:43:51.914Z,18.10
2017-08-18T03:46:19.631Z,18.00
2017-08-18T03:48:47.402Z,18.10
2017-08-18T03:51:15.166Z,18.10
2017-08-18T03:53:42.826Z,18.10
2017-08-18T03:56:10.433Z,18.10
2017-08-18T03:58:38.248Z,18.00
2017-08-18T04:01:05.924Z,17.90
2017-08-18T04:03:33.504Z,17.90
2017-08-18T04:06:01.110Z,18.00
2017-08-18T04:08:28.799Z,18.00
2017-08-18T04:10:56.418Z,18.00
2017-08-18T04:13:24.066Z,18.00
2017-08-18T04:15:51.666Z,17.90
2017-08-18T04:18:20.039Z,18.00
2017-08-18T04:20:48.355Z,18.00
2017-08-18T04:23:16.028Z,18.00
2017-08-18T04:25:43.645Z,18.10
2017-08-18T04:28:11.265Z,18.00
2017-08-18T04:30:38.840Z,18.10
2017-08-18T04:33:06.435Z,18.10
2017-08-18T04:35:34.906Z,18.20
2017-08-18T04:38:03.317Z,18.20
2017-08-18T04:40:30.987Z,18.20
2017-08-18T04:42:58.727Z,18.20
2017-08-18T04:45:26.392Z,18.30
2017-08-18T04:47:54.011Z,18.20
2017-08-18T04:50:21.665Z,18.30
2017-08-18T04:52:49.289Z,18.30
2017-08-18T04:55:16.935Z,18.30
2017-08-18T04:57:44.532Z,18.40
2017-08-18T05:00:12.461Z,18.40
2017-08-18T05:02:40.067Z,18.50
2017-08-18T05:05:07.740Z,18.50
2017-08-18T05:07:35.312Z,18.50
2017-08-18T05:10:02.940Z,18.50
2017-08-18T05:12:30.606Z,18.50
2017-08-18T05:14:58.231Z,18.60
2017-08-18T05:17:25.886Z,18.60
2017-08-18T05:19:53.490Z,18.60
2017-08-18T05:22:21.137Z,18.70
2017-08-18T05:24:48.752Z,18.80
2017-08-18T05:27:16.411Z,18.90
2017-08-18T05:29:44.778Z,19.00
2017-08-18T05:32:13.169Z,19.10
2017-08-18T05:34:40.796Z,19.10
2017-08-18T05:37:09.166Z,19.20
2017-08-18T05:39:36.865Z,19.20
2017-08-18T05:42:04.486Z,19.20
2017-08-18T05:44:32.155Z,19.20
2017-08-18T05:46:59.819Z,19.10
2017-08-18T05:49:27.491Z,19.10
2017-08-18T05:51:55.189Z,19.20
2017-08-18T05:54:22.828Z,19.30
2017-08-18T05:56:50.445Z,19.40
2017-08-18T05:59:18.011Z,19.60
2017-08-18T06:01:45.676Z,19.60
2017-08-18T06:04:13.256Z,19.80
2017-08-18T06:06:40.880Z,19.90
2017-08-18T06:09:09.368Z,20.10
2017-08-18T06:11:36.973Z,20.10
2017-08-18T06:14:04.573Z,20.30
2017-08-18T06:16:32.218Z,20.40
2017-08-18T06:19:00.591Z,20.60
2017-08-18T06:21:29.016Z,20.60
2017-08-18T06:23:56.772Z,20.60
2017-08-18T06:26:24.466Z,20.60
2017-08-18T06:28:52.040Z,20.60
2017-08-18T06:31:19.705Z,20.50
2017-08-18T06:33:47.314Z,20.50
2017-08-18T06:36:14.964Z,20.40
2017-08-18T06:38:42.495Z,20.30
2017-08-18T06:41:10.160Z,20.30
2017-08-18T06:43:37.715Z,20.40
2017-08-18T06:46:05.330Z,20.60
2017-08-18T06:48:33.655Z,20.90
2017-08-18T06:51:01.329Z,20.90
2017-08-18T06:53:28.893Z,21.00
2017-08-18T06:55:56.473Z,21.20
2017-08-18T06:58:24.080Z,21.40
2017-08-18T07:00:52.510Z,21.60
2017-08-18T07:03:20.088Z,21.60
2017-08-18T07:05:48.496Z,21.90
2017-08-18T07:08:16.102Z,21.80
2017-08-18T07:10:44.526Z,22.40
2017-08-18T07:13:12.127Z,22.40
2017-08-18T07:15:39.778Z,22.70
2017-08-18T07:18:07.373Z,22.90
2017-08-18T07:20:35.045Z,22.90
2017-08-18T07:23:03.424Z,22.90
2017-08-18T07:25:31.115Z,22.80
2017-08-18T07:27:58.769Z,22.70
2017-08-18T07:30:26.391Z,22.70
2017-08-18T07:32:54.051Z,22.60
2017-08-18T07:35:21.681Z,22.50
2017-08-18T07:37:49.347Z,22.50
2017-08-18T07:40:16.942Z,22.50
2017-08-18T07:42:45.360Z,22.60
2017-08-18T07:45:12.981Z,22.60
2017-08-18T07:47:40.647Z,22.60
2017-08-18T07:50:08.286Z,22.50
2017-08-18T07:52:35.961Z,22.60
2017-08-18T07:55:09.474Z,22.70
2017-08-18T07:57:37.910Z,23.00
2017-08-18T08:00:05.513Z,23.00
2017-08-18T08:02:33.163Z,23.20
2017-08-18T08:05:00.796Z,23.40
2017-08-18T08:07:28.476Z,23.50
2017-08-18T08:09:56.078Z,23.60
2017-08-18T08:12:24.502Z,23.70
2017-08-18T08:14:52.106Z,23.70
2017-08-18T08:17:19.770Z,23.80
2017-08-18T08:19:47.377Z,23.90
2017-08-18T08:22:14.982Z,24.10
2017-08-18T08:24:42.744Z,24.20
2017-08-18T08:27:10.438Z,24.40
2017-08-18T08:29:37.979Z,24.50
2017-08-18T08:32:06.361Z,24.80
2017-08-18T08:34:33.943Z,24.80
2017-08-18T08:37:01.505Z,24.90
2017-08-18T08:39:29.063Z,24.90
2017-08-18T08:41:57.418Z,25.20
2017-08-18T08:44:25.048Z,25.20
2017-08-18T08:46:52.655Z,25.40
2017-08-18T08:49:20.211Z,25.40
2017-08-18T08:51:47.762Z,25.50
2017-08-18T08:54:15.381Z,25.60
2017-08-18T08:56:42.994Z,25.70
2017-08-18T08:59:11.421Z,25.80
2017-08-18T09:01:38.985Z,25.70
2017-08-18T09:04:06.645Z,25.90
2017-08-18T09:06:34.197Z,26.00
2017-08-18T09:09:02.603Z,26.10
2017-08-18T09:11:30.167Z,26.10
2017-08-18T09:13:57.826Z,26.10
2017-08-18T09:16:25.434Z,26.20
2017-08-18T09:18:53.104Z,26.30
2017-08-18T09:21:20.694Z,26.30
2017-08-18T09:23:48.363Z,26.40
2017-08-18T09:26:17.700Z,26.60
2017-08-18T09:28:45.316Z,26.60
2017-08-18T09:31:12.877Z,26.60
2017-08-18T09:33:40.481Z,26.60
2017-08-18T09:36:08.067Z,26.60
2017-08-18T09:38:35.753Z,26.60
2017-08-18T09:41:03.374Z,26.70
2017-08-18T09:43:31.046Z,26.90
2017-08-18T09:45:58.676Z,27.10
2017-08-18T09:48:38.008Z,27.20
2017-08-18T09:51:17.366Z,27.60
2017-08-18T09:53:57.693Z,27.70
2017-08-18T09:56:37.746Z,27.70
2017-08-18T09:59:11.181Z,28.20
2017-08-18T10:01:38.787Z,28.20
2017-08-18T10:04:06.420Z,28.20
2017-08-18T10:06:34.814Z,28.20
2017-08-18T10:09:02.493Z,28.20
2017-08-18T10:11:30.121Z,28.20
2017-08-18T10:13:57.784Z,28.30
2017-08-18T10:16:25.381Z,28.30
2017-08-18T10:18:53.010Z,28.30
2017-08-18T10:21:20.621Z,28.20
2017-08-18T10:23:48.209Z,28.30
2017-08-18T10:26:15.745Z,28.60
2017-08-18T10:28:44.110Z,28.90
2017-08-18T10:31:11.777Z,28.90
2017-08-18T10:33:39.438Z,29.10
2017-08-18T10:36:07.117Z,29.20
2017-08-18T10:38:34.723Z,29.40
2017-08-18T10:41:02.291Z,29.40
2017-08-18T10:43:29.885Z,29.40
2017-08-18T10:45:57.557Z,29.40
2017-08-18T10:48:25.148Z,29.50
2017-08-18T10:50:52.808Z,29.60
2017-08-18T10:53:20.351Z,30.00
2017-08-18T10:55:48.005Z,30.00
2017-08-18T10:58:15.624Z,30.20
2017-08-18T11:00:43.297Z,30.30
2017-08-18T11:03:10.877Z,30.20
2017-08-18T11:05:38.523Z,30.10
2017-08-18T11:08:06.865Z,30.40
2017-08-18T11:10:34.530Z,30.40
2017-08-18T11:13:02.099Z,30.70
2017-08-18T11:15:29.799Z,30.70
2017-08-18T11:17:57.397Z,30.90
2017-08-18T11:20:25.036Z,31.00
2017-08-18T11:22:52.645Z,31.00
2017-08-18T11:25:20.289Z,31.10
2017-08-18T11:27:47.903Z,31.00
2017-08-18T11:30:15.505Z,31.00
2017-08-18T11:32:43.829Z,30.90
2017-08-18T11:35:11.466Z,30.80
2017-08-18T11:37:39.072Z,30.90
2017-08-18T11:40:06.694Z,31.00
2017-08-18T11:42:35.115Z,30.60
2017-08-18T11:45:02.746Z,30.50
2017-08-18T11:47:30.429Z,30.20
2017-08-18T11:49:58.031Z,30.30
2017-08-18T11:52:25.718Z,30.40
2017-08-18T11:54:53.327Z,30.50
2017-08-18T11:57:20.996Z,30.70
2017-08-18T11:59:48.605Z,30.80
2017-08-18T12:02:16.309Z,31.10
2017-08-18T12:04:43.920Z,31.20
2017-08-18T12:07:11.580Z,31.20
2017-08-18T12:09:39.173Z,31.40
2017-08-18T12:12:06.749Z,31.50
2017-08-18T12:14:34.295Z,31.30
2017-08-18T12:17:01.965Z,30.80
2017-08-18T12:19:29.627Z,31.00
2017-08-18T12:21:57.201Z,31.00
2017-08-18T12:24:24.747Z,31.00
2017-08-18T12:26:52.368Z,31.00
2017-08-18T12:29:19.965Z,31.10
2017-08-18T12:31:47.608Z,31.20
2017-08-18T12:34:15.947Z,31.00
2017-08-18T12:36:43.599Z,31.00
2017-08-18T12:39:11.184Z,31.00
2017-08-18T12:41:38.844Z,30.80
2017-08-18T12:44:06.431Z,30.80
2017-08-18T12:46:34.046Z,30.70
2017-08-18T12:49:01.743Z,30.50
2017-08-18T12:51:30.137Z,30.40
2017-08-18T12:53:57.793Z,30.40
2017-08-18T12:56:25.389Z,30.50
2017-08-18T12:58:53.124Z,30.60
2017-08-18T13:01:20.725Z,30.60
2017-08-18T13:03:48.363Z,30.80
2017-08-18T13:06:15.957Z,30.90
2017-08-18T13:08:43.580Z,30.50
2017-08-18T13:11:11.192Z,30.20
2017-08-18T13:13:38.804Z,30.40
2017-08-18T13:16:06.429Z,30.60
2017-08-18T13:18:34.073Z,30.60
2017-08-18T13:21:01.628Z,30.80
2017-08-18T13:23:29.265Z,30.70
2017-08-18T13:25:56.934Z,30.90
2017-08-18T13:28:24.593Z,30.90
2017-08-18T13:30:52.193Z,31.10
2017-08-18T13:33:19.955Z,31.30
2017-08-18T13:35:47.574Z,31.50
2017-08-18T13:38:15.210Z,31.70
2017-08-18T13:40:42.798Z,31.70
2017-08-18T13:43:10.426Z,31.80
2017-08-18T13:45:37.967Z,31.90
2017-08-18T13:48:05.605Z,32.00
2017-08-18T13:50:33.216Z,32.00
2017-08-18T13:53:01.650Z,31.80
2017-08-18T13:55:29.274Z,31.70
2017-08-18T13:57:56.798Z,31.80
2017-08-18T14:00:24.493Z,31.60
2017-08-18T14:02:52.024Z,31.30
2017-08-18T14:05:19.587Z,30.80
2017-08-18T14:07:47.248Z,30.40
2017-08-18T14:10:14.820Z,30.30
2017-08-18T14:12:43.137Z,29.90
2017-08-18T14:15:10.788Z,29.50
2017-08-18T14:17:38.391Z,29.20
2017-08-18T14:20:06.051Z,28.80
2017-08-18T14:22:33.666Z,28.00
2017-08-18T14:28:06.828Z,24.70
2017-08-18T14:30:34.426Z,23.50
2017-08-18T14:33:02.056Z,23.00
2017-08-18T14:35:29.726Z,22.50
2017-08-18T14:37:57.367Z,22.20
2017-08-18T14:40:25.025Z,22.10
2017-08-18T14:42:52.626Z,22.00
2017-08-18T14:45:21.045Z,22.10
2017-08-18T14:47:48.663Z,22.00
2017-08-18T14:50:16.301Z,22.20
2017-08-18T14:52:43.913Z,22.40
2017-08-18T14:55:11.574Z,22.80
2017-08-18T14:57:39.173Z,23.00
2017-08-18T15:00:06.842Z,23.00
2017-08-18T15:02:34.447Z,23.10
2017-08-18T15:05:02.069Z,23.00
2017-08-18T15:07:30.485Z,22.70
2017-08-18T15:09:58.098Z,22.70
2017-08-18T15:12:25.713Z,22.60
2017-08-18T15:14:53.263Z,22.50
2017-08-18T15:17:21.646Z,22.40
2017-08-18T15:19:49.251Z,22.40
2017-08-18T15:22:16.923Z,22.30
2017-08-18T15:24:45.291Z,22.20
2017-08-18T15:27:13.694Z,22.20
2017-08-18T15:29:41.284Z,22.20
2017-08-18T15:32:08.924Z,22.30
2017-08-18T15:34:36.533Z,22.20
2017-08-18T15:37:04.163Z,22.20
2017-08-18T15:39:31.772Z,21.90
2017-08-18T15:41:59.373Z,21.80
2017-08-18T15:44:27.002Z,21.70
2017-08-18T15:46:54.652Z,21.60
2017-08-18T15:49:22.267Z,21.50
2017-08-18T15:51:50.607Z,21.20
2017-08-18T15:54:18.256Z,21.20
2017-08-18T15:56:45.853Z,21.00
2017-08-18T15:59:13.499Z,20.60
2017-08-18T16:01:41.100Z,20.10
2017-08-18T16:04:08.710Z,19.70
2017-08-18T16:06:36.296Z,19.50
2017-08-18T16:09:03.936Z,19.30
2017-08-18T16:11:31.562Z,19.20
2017-08-18T16:13:59.139Z,19.00
2017-08-18T16:16:26.767Z,18.70
2017-08-18T16:18:54.438Z,18.50
2017-08-18T16:21:22.063Z,18.40
2017-08-18T16:23:49.715Z,18.30
2017-08-18T16:26:17.311Z,18.10
2017-08-18T16:28:44.905Z,18.00
2017-08-18T16:31:12.576Z,18.00
2017-08-18T16:33:40.928Z,18.10
2017-08-18T16:36:08.596Z,18.10
2017-08-18T16:38:36.212Z,18.10
2017-08-18T16:41:03.921Z,18.20
2017-08-18T16:43:31.581Z,18.20
2017-08-18T16:45:59.233Z,18.30
2017-08-18T16:48:26.842Z,18.30
2017-08-18T16:50:54.514Z,18.40
2017-08-18T16:53:22.065Z,18.30
2017-08-18T16:55:49.709Z,18.40
2017-08-18T16:58:17.304Z,18.40
2017-08-18T17:00:44.945Z,18.40
2017-08-18T17:03:12.541Z,18.40
2017-08-18T17:05:40.137Z,18.40
2017-08-18T17:08:07.780Z,18.40
2017-08-18T17:10:35.396Z,18.40
2017-08-18T17:13:03.049Z,18.50
2017-08-18T17:15:30.685Z,18.50
2017-08-18T17:17:58.365Z,18.60
2017-08-18T17:20:25.979Z,18.50
2017-08-18T17:22:53.642Z,18.40
2017-08-18T17:25:21.233Z,18.40
2017-08-18T17:27:49.662Z,18.20
2017-08-18T17:30:17.274Z,18.20
2017-08-18T17:32:44.879Z,18.10
2017-08-18T17:35:13.288Z,18.10
2017-08-18T17:37:40.890Z,18.10
2017-08-18T17:40:08.516Z,18.10
2017-08-18T17:42:36.098Z,18.00
2017-08-18T17:45:04.524Z,17.90
2017-08-18T17:47:32.129Z,17.90
2017-08-18T17:49:59.798Z,17.80
2017-08-18T17:52:27.416Z,17.80
2017-08-18T17:54:55.061Z,17.80
2017-08-18T17:57:22.694Z,17.80
2017-08-18T17:59:51.100Z,17.80
2017-08-18T18:02:18.801Z,17.80
2017-08-18T18:04:47.213Z,17.80
2017-08-18T18:07:14.772Z,17.80
2017-08-18T18:09:42.425Z,17.80
2017-08-18T18:12:10.030Z,17.90
2017-08-18T18:14:37.666Z,17.90
2017-08-18T18:17:05.332Z,17.90
2017-08-18T18:19:32.961Z,17.90
2017-08-18T18:22:00.589Z,17.90
2017-08-18T18:24:28.996Z,17.90
2017-08-18T18:26:56.632Z,17.90
2017-08-18T18:29:24.199Z,18.00
2017-08-18T18:31:51.747Z,17.90
2017-08-18T18:34:19.401Z,17.80
2017-08-18T18:36:46.965Z,17.80
2017-08-18T18:39:14.562Z,17.80
2017-08-18T18:41:42.192Z,17.80
2017-08-18T18:44:09.790Z,17.80
2017-08-18T18:46:37.934Z,17.80
2017-08-18T18:49:05.594Z,17.80
2017-08-18T18:51:33.260Z,17.90
2017-08-18T18:54:00.848Z,17.90
2017-08-18T18:56:28.494Z,17.90
2017-08-18T18:58:56.192Z,17.90
2017-08-18T19:01:23.824Z,17.80
2017-08-18T19:03:51.432Z,17.70
2017-08-18T19:06:19.077Z,17.60
2017-08-18T19:08:46.693Z,17.60
2017-08-18T19:11:14.352Z,17.50
2017-08-18T19:13:42.692Z,17.40
2017-08-18T19:16:10.332Z,17.40
2017-08-18T19:18:37.925Z,17.40
2017-08-18T19:21:05.591Z,17.40
2017-08-18T19:23:33.168Z,17.40
2017-08-18T19:26:00.851Z,17.30
2017-08-18T19:28:28.455Z,17.30
2017-08-18T19:30:56.066Z,17.30
2017-08-18T19:33:23.729Z,17.20
2017-08-18T19:35:51.320Z,17.10
2017-08-18T19:38:18.946Z,17.10
2017-08-18T19:40:46.550Z,17.00
2017-08-18T19:43:14.180Z,16.90
2017-08-18T19:45:42.541Z,16.90
2017-08-18T19:48:10.197Z,16.90
2017-08-18T19:50:38.566Z,16.90
2017-08-18T19:53:06.988Z,16.90
2017-08-18T19:55:34.585Z,16.90
2017-08-18T19:58:02.228Z,16.90
2017-08-18T20:00:29.829Z,17.00
2017-08-18T20:02:57.471Z,17.00
2017-08-18T20:05:25.075Z,17.00
2017-08-18T20:07:52.696Z,17.00
2017-08-18T20:10:21.066Z,17.00
2017-08-18T20:12:49.481Z,17.00
2017-08-18T20:15:17.042Z,16.90
2017-08-18T20:17:44.682Z,17.00
2017-08-18T20:20:12.297Z,17.00
2017-08-18T20:22:39.931Z,17.00
2017-08-18T20:25:07.536Z,17.00
2017-08-18T20:27:35.201Z,17.00
2017-08-18T20:30:03.578Z,16.90
2017-08-18T20:32:31.900Z,16.90
2017-08-18T20:34:59.503Z,17.00
2017-08-18T20:37:27.112Z,16.90
2017-08-18T20:39:54.765Z,16.80
2017-08-18T20:42:22.369Z,16.80
2017-08-18T20:44:50.017Z,16.70
2017-08-18T20:47:17.606Z,16.70
2017-08-18T20:49:45.266Z,16.80
2017-08-18T20:52:13.616Z,16.80
2017-08-18T20:54:41.208Z,16.80
2017-08-18T20:57:08.739Z,16.70
2017-08-18T20:59:36.303Z,16.70
2017-08-18T21:02:03.879Z,16.60
2017-08-18T21:04:31.520Z,16.60
2017-08-18T21:06:59.107Z,16.60
2017-08-18T21:09:26.664Z,16.60
2017-08-18T21:11:54.264Z,16.50
2017-08-18T21:14:21.893Z,16.60
2017-08-18T21:16:49.512Z,16.50
2017-08-18T21:19:17.178Z,16.50
2017-08-18T21:21:44.760Z,16.50
2017-08-18T21:24:12.375Z,16.50
2017-08-18T21:26:40.043Z,16.60
2017-08-18T21:29:07.637Z,16.60
2017-08-18T21:31:35.281Z,16.50
2017-08-18T21:34:02.925Z,16.50
2017-08-18T21:36:30.570Z,16.50
2017-08-18T21:38:58.447Z,16.60
2017-08-18T21:41:26.098Z,16.70
2017-08-18T21:43:53.716Z,16.60
2017-08-18T21:46:22.128Z,16.50
2017-08-18T21:48:49.733Z,16.50
2017-08-18T21:51:17.394Z,16.50
2017-08-18T21:53:45.001Z,16.50
2017-08-18T21:56:12.637Z,16.50
2017-08-18T21:58:40.244Z,16.50
2017-08-18T22:01:07.841Z,16.40
2017-08-18T22:03:35.441Z,16.30
2017-08-18T22:06:03.043Z,16.40
2017-08-18T22:08:30.673Z,16.40
2017-08-18T22:10:58.313Z,16.40
2017-08-18T22:13:25.933Z,16.40
2017-08-18T22:15:53.594Z,16.40
2017-08-18T22:18:21.191Z,16.40
2017-08-18T22:20:48.839Z,16.30
2017-08-18T22:23:16.442Z,16.30
2017-08-18T22:25:44.079Z,16.30
2017-08-18T22:28:11.681Z,16.30
2017-08-18T22:30:39.264Z,16.30
2017-08-18T22:33:06.853Z,16.30
2017-08-18T22:35:35.245Z,16.20
2017-08-18T22:38:02.852Z,16.20
2017-08-18T22:40:30.517Z,16.30
2017-08-18T22:42:58.146Z,16.40
2017-08-18T22:45:26.561Z,16.40
2017-08-18T22:47:54.173Z,16.40
2017-08-18T22:50:21.837Z,16.40
2017-08-18T22:52:49.425Z,16.50
2017-08-18T22:55:17.109Z,16.40
2017-08-18T22:57:44.709Z,16.30
2017-08-18T23:00:12.321Z,16.30
2017-08-18T23:02:39.956Z,16.30
2017-08-18T23:05:08.326Z,16.20
2017-08-18T23:07:35.970Z,16.10
2017-08-18T23:10:03.605Z,16.20
2017-08-18T23:12:32.051Z,16.20
2017-08-18T23:14:59.670Z,16.20
2017-08-18T23:17:27.318Z,16.20
2017-08-18T23:19:54.913Z,16.30
2017-08-18T23:22:22.556Z,16.20
2017-08-18T23:24:50.891Z,16.20
2017-08-18T23:27:18.533Z,16.20
2017-08-18T23:29:46.125Z,16.20
2017-08-18T23:32:14.508Z,16.20
2017-08-18T23:34:42.120Z,16.20
2017-08-18T23:37:10.537Z,16.20
2017-08-18T23:39:38.095Z,16.10
2017-08-18T23:42:05.747Z,16.20
2017-08-18T23:44:33.350Z,16.20
2017-08-18T23:47:01.018Z,16.20
2017-08-18T23:49:28.605Z,16.10
2017-08-18T23:51:56.198Z,16.20
2017-08-18T23:54:23.837Z,16.10
2017-08-18T23:56:51.409Z,16.20
2017-08-18T23:59:19.024Z,16.10
